createdAt,value
2019-03-25T00:00:45.038Z,45.07
2019-03-25T00:03:13.075Z,45.74
2019-03-25T00:05:41.166Z,45.27
2019-03-25T00:08:09.137Z,45.76
2019-03-25T00:10:37.171Z,45.13
2019-03-25T00:13:05.175Z,44.71
2019-03-25T00:15:33.158Z,43.07
2019-03-25T00:18:06.011Z,44.83
2019-03-25T00:20:35.137Z,42.91
2019-03-25T00:23:03.233Z,44.47
2019-03-25T00:25:31.267Z,45.34
2019-03-25T00:27:59.260Z,45.14
2019-03-25T00:30:27.255Z,42.57
2019-03-25T00:32:55.242Z,42.91
2019-03-25T00:35:23.247Z,45.04
2019-03-25T00:37:51.234Z,45.43
2019-03-25T00:40:19.218Z,43.95
2019-03-25T00:42:47.204Z,44.36
2019-03-25T00:45:15.218Z,45.19
2019-03-25T00:47:43.222Z,45.43
2019-03-25T00:50:11.302Z,45.92
2019-03-25T00:52:39.296Z,43.99
2019-03-25T00:55:07.403Z,44.01
2019-03-25T00:57:35.446Z,44.88
2019-03-25T01:00:03.498Z,44.55
2019-03-25T01:02:35.034Z,46.06
2019-03-25T01:05:02.579Z,44.45
2019-03-25T01:07:30.614Z,45.65
2019-03-25T01:09:58.619Z,45.02
2019-03-25T01:12:26.644Z,44.66
2019-03-25T01:14:54.722Z,44.83
2019-03-25T01:17:22.726Z,44.62
2019-03-25T01:19:50.712Z,45.93
2019-03-25T01:22:18.698Z,45.21
2019-03-25T01:24:46.691Z,42.88
2019-03-25T01:27:14.919Z,45.70
2019-03-25T01:29:42.966Z,45.64
2019-03-25T01:32:10.980Z,44.33
2019-03-25T01:34:38.946Z,44.39
2019-03-25T01:37:06.929Z,45.70
2019-03-25T01:39:34.963Z,44.33
2019-03-25T01:42:11.554Z,45.22
2019-03-25T01:44:36.986Z,44.83
2019-03-25T01:47:04.974Z,45.13
2019-03-25T01:49:32.954Z,46.24
2019-03-25T01:52:00.961Z,41.38
2019-03-25T01:54:28.959Z,44.05
2019-03-25T01:56:56.979Z,44.83
2019-03-25T01:59:24.971Z,43.79
2019-03-25T02:01:52.956Z,43.66
2019-03-25T02:04:21.291Z,45.08
2019-03-25T02:06:49.290Z,45.13
2019-03-25T02:09:17.308Z,43.94
2019-03-25T02:11:45.313Z,46.14
2019-03-25T02:14:13.693Z,44.96
2019-03-25T02:19:51.850Z,45.18
2019-03-25T02:22:19.931Z,42.61
2019-03-25T02:24:47.990Z,44.14
2019-03-25T02:27:16.102Z,44.58
2019-03-25T02:29:44.150Z,43.83
2019-03-25T02:32:12.177Z,45.15
2019-03-25T02:34:40.242Z,45.88
2019-03-25T02:37:08.272Z,45.52
2019-03-25T02:39:36.320Z,45.34
2019-03-25T02:42:06.123Z,45.56
2019-03-25T02:44:34.144Z,43.48
2019-03-25T02:47:02.144Z,44.45
2019-03-25T02:49:30.370Z,44.79
2019-03-25T02:51:58.505Z,45.87
2019-03-25T02:54:26.490Z,45.82
2019-03-25T02:56:54.493Z,46.11
2019-03-25T02:59:22.578Z,45.56
2019-03-25T03:01:50.694Z,46.06
2019-03-25T03:04:18.746Z,45.55
2019-03-25T03:06:46.827Z,44.00
2019-03-25T03:09:14.864Z,45.65
2019-03-25T03:11:42.958Z,45.96
2019-03-25T03:14:10.998Z,45.28
2019-03-25T03:16:39.061Z,45.60
2019-03-25T03:19:07.142Z,45.91
2019-03-25T03:21:35.180Z,45.92
2019-03-25T03:24:06.152Z,45.79
2019-03-25T03:26:34.295Z,45.41
2019-03-25T03:29:02.301Z,45.69
2019-03-25T03:31:30.316Z,46.06
2019-03-25T03:33:58.403Z,44.60
2019-03-25T03:36:26.455Z,46.07
2019-03-25T03:38:54.479Z,46.15
2019-03-25T03:41:22.607Z,45.62
2019-03-25T03:43:50.608Z,46.17
2019-03-25T03:46:18.637Z,45.79
2019-03-25T03:48:46.699Z,45.69
2019-03-25T03:51:14.769Z,44.92
2019-03-25T03:53:42.792Z,44.82
2019-03-25T03:56:13.654Z,46.39
2019-03-25T03:58:40.623Z,44.66
2019-03-25T04:01:08.887Z,44.85
2019-03-25T04:03:44.349Z,45.70
2019-03-25T04:06:12.357Z,45.80
2019-03-25T04:08:40.503Z,45.77
2019-03-25T04:11:08.490Z,45.30
2019-03-25T04:13:36.543Z,46.23
2019-03-25T04:16:04.518Z,43.88
2019-03-25T04:18:32.523Z,44.83
2019-03-25T04:21:00.520Z,43.92
2019-03-25T04:23:28.514Z,46.23
2019-03-25T04:25:56.512Z,44.16
2019-03-25T04:28:24.579Z,43.86
2019-03-25T04:30:52.571Z,44.23
2019-03-25T04:33:20.610Z,44.54
2019-03-25T04:35:48.620Z,44.35
2019-03-25T04:38:19.002Z,45.25
2019-03-25T04:40:47.064Z,44.55
2019-03-25T04:43:16.351Z,45.77
2019-03-25T04:45:44.326Z,45.52
2019-03-25T04:48:12.335Z,46.44
2019-03-25T04:50:40.386Z,44.96
2019-03-25T04:53:08.352Z,45.73
2019-03-25T04:55:36.499Z,46.31
2019-03-25T04:58:04.577Z,46.28
2019-03-25T05:00:33.317Z,44.42
2019-03-25T05:03:01.314Z,46.18
2019-03-25T05:05:29.307Z,46.42
2019-03-25T05:07:57.314Z,44.90
2019-03-25T05:10:25.302Z,46.19
2019-03-25T05:12:54.384Z,46.47
2019-03-25T05:15:22.730Z,46.21
2019-03-25T05:17:50.723Z,45.27
2019-03-25T05:20:20.699Z,45.53
2019-03-25T05:22:50.414Z,46.30
2019-03-25T05:25:18.139Z,45.61
2019-03-25T05:27:46.162Z,45.78
2019-03-25T05:30:14.150Z,46.38
2019-03-25T05:32:42.174Z,44.72
2019-03-25T05:35:10.157Z,44.27
2019-03-25T05:37:38.175Z,45.75
2019-03-25T05:40:06.244Z,45.82
2019-03-25T05:42:34.215Z,45.90
2019-03-25T05:45:02.191Z,45.73
2019-03-25T05:47:30.496Z,46.09
2019-03-25T05:49:58.539Z,46.03
2019-03-25T05:52:26.542Z,44.75
2019-03-25T05:54:54.533Z,45.50
2019-03-25T05:57:22.534Z,44.42
2019-03-25T05:59:50.551Z,46.32
2019-03-25T06:02:25.928Z,44.42
2019-03-25T06:04:53.920Z,48.04
2019-03-25T06:07:21.933Z,45.34
2019-03-25T06:09:49.970Z,46.89
2019-03-25T06:12:17.945Z,46.89
2019-03-25T06:14:45.974Z,47.36
2019-03-25T06:17:13.971Z,46.16
2019-03-25T06:19:42.014Z,47.82
2019-03-25T06:22:10.013Z,46.53
2019-03-25T06:24:38.020Z,47.88
2019-03-25T06:27:14.032Z,44.37
2019-03-25T06:29:36.115Z,48.06
2019-03-25T06:35:01.164Z,46.90
2019-03-25T06:37:29.220Z,47.69
2019-03-25T06:39:57.299Z,47.75
2019-03-25T06:42:25.302Z,46.79
2019-03-25T06:44:53.351Z,46.36
2019-03-25T06:47:21.388Z,46.80
2019-03-25T06:49:49.379Z,45.81
2019-03-25T06:52:17.389Z,46.08
2019-03-25T06:54:45.463Z,47.70
2019-03-25T06:57:24.779Z,45.59
2019-03-25T06:59:43.177Z,47.28
2019-03-25T07:02:11.174Z,47.85
2019-03-25T07:04:39.158Z,47.96
2019-03-25T07:07:09.236Z,48.12
2019-03-25T07:09:37.003Z,46.16
2019-03-25T07:12:05.014Z,48.50
2019-03-25T07:14:33.002Z,48.06
2019-03-25T07:17:00.991Z,47.51
2019-03-25T07:19:28.984Z,48.16
2019-03-25T07:21:56.978Z,47.55
2019-03-25T07:24:24.986Z,49.72
2019-03-25T07:26:55.501Z,48.42
2019-03-25T07:29:22.715Z,48.30
2019-03-25T07:31:50.703Z,48.31
2019-03-25T07:34:18.711Z,49.16
2019-03-25T07:36:46.731Z,46.19
2019-03-25T07:39:14.822Z,47.72
2019-03-25T07:41:42.890Z,47.96
2019-03-25T07:44:10.950Z,47.13
2019-03-25T07:46:38.953Z,47.31
2019-03-25T07:49:07.083Z,46.25
2019-03-25T07:51:40.300Z,46.61
2019-03-25T07:54:08.309Z,46.56
2019-03-25T07:56:36.462Z,45.77
2019-03-25T07:59:04.535Z,47.02
2019-03-25T08:01:32.599Z,46.43
2019-03-25T08:04:00.651Z,45.22
2019-03-25T08:06:28.649Z,46.26
2019-03-25T08:09:03.744Z,45.22
2019-03-25T08:11:26.491Z,45.21
2019-03-25T08:13:54.519Z,44.88
2019-03-25T08:16:22.571Z,44.04
2019-03-25T08:18:50.619Z,45.52
2019-03-25T08:21:18.823Z,45.87
2019-03-25T08:23:46.806Z,45.81
2019-03-25T08:26:14.982Z,45.68
2019-03-25T08:28:47.611Z,45.48
2019-03-25T08:31:15.339Z,45.22
2019-03-25T08:33:43.342Z,45.79
2019-03-25T08:36:11.320Z,45.50
2019-03-25T08:38:39.310Z,45.50
2019-03-25T08:41:07.491Z,45.67
2019-03-25T08:43:35.534Z,45.05
2019-03-25T08:46:03.518Z,45.24
2019-03-25T08:48:31.502Z,45.16
2019-03-25T08:50:59.512Z,45.08
2019-03-25T08:53:27.635Z,45.07
2019-03-25T08:55:55.982Z,44.72
2019-03-25T08:58:23.998Z,44.92
2019-03-25T09:00:52.346Z,45.32
2019-03-25T09:03:20.425Z,44.90
2019-03-25T09:05:54.491Z,45.26
2019-03-25T09:08:21.057Z,45.25
2019-03-25T09:10:49.079Z,45.01
2019-03-25T09:13:17.095Z,45.25
2019-03-25T09:15:45.079Z,45.15
2019-03-25T09:18:13.093Z,45.31
2019-03-25T09:20:41.509Z,45.27
2019-03-25T09:23:10.159Z,45.29
2019-03-25T09:25:38.181Z,45.29
2019-03-25T09:28:06.171Z,45.19
2019-03-25T09:31:07.954Z,44.92
2019-03-25T09:33:35.926Z,45.00
2019-03-25T09:36:04.034Z,45.22
2019-03-25T09:38:32.099Z,45.61
2019-03-25T09:41:00.124Z,45.28
2019-03-25T09:43:28.206Z,45.32
2019-03-25T09:45:56.421Z,45.40
2019-03-25T09:48:24.571Z,45.78
2019-03-25T09:50:53.740Z,46.39
2019-03-25T09:53:22.023Z,46.11
2019-03-25T09:55:50.206Z,46.50
2019-03-25T09:58:18.821Z,46.44
2019-03-25T10:00:47.089Z,46.07
2019-03-25T10:03:15.203Z,46.04
2019-03-25T10:05:43.710Z,46.22
2019-03-25T10:08:11.860Z,45.98
2019-03-25T10:10:40.049Z,46.22
2019-03-25T10:13:08.703Z,46.52
2019-03-25T10:15:37.081Z,46.46
2019-03-25T10:18:05.173Z,46.99
2019-03-25T10:20:33.298Z,46.60
2019-03-25T10:23:01.442Z,46.37
2019-03-25T10:25:29.577Z,48.40
2019-03-25T10:27:57.669Z,47.97
2019-03-25T10:30:25.811Z,46.29
2019-03-25T10:32:53.896Z,47.01
2019-03-25T10:35:25.298Z,47.11
2019-03-25T10:37:53.364Z,47.24
2019-03-25T10:40:21.521Z,47.76
2019-03-25T10:42:50.732Z,47.37
2019-03-25T10:45:21.061Z,47.81
2019-03-25T10:47:53.046Z,47.40
2019-03-25T10:50:21.169Z,47.67
2019-03-25T10:52:49.226Z,48.41
2019-03-25T10:55:17.321Z,48.49
2019-03-25T10:57:45.387Z,48.35
2019-03-25T11:00:13.830Z,48.51
2019-03-25T11:02:41.880Z,48.27
2019-03-25T11:05:10.497Z,48.21
2019-03-25T11:07:38.744Z,48.39
2019-03-25T11:10:07.228Z,49.05
2019-03-25T11:12:35.377Z,49.23
2019-03-25T11:15:03.516Z,48.27
2019-03-25T11:17:31.559Z,47.47
2019-03-25T11:19:59.623Z,48.49
2019-03-25T11:22:27.781Z,48.07
2019-03-25T11:24:55.910Z,47.94
2019-03-25T11:27:24.047Z,48.50
2019-03-25T11:29:52.196Z,49.29
2019-03-25T11:32:20.283Z,49.43
2019-03-25T11:34:48.376Z,47.72
2019-03-25T11:37:16.437Z,48.16
2019-03-25T11:39:44.507Z,49.58
2019-03-25T11:42:12.570Z,47.78
2019-03-25T11:44:40.670Z,47.29
2019-03-25T11:47:08.729Z,49.31
2019-03-25T11:49:37.759Z,47.83
2019-03-25T11:55:27.848Z,48.07
2019-03-25T11:57:56.119Z,48.43
2019-03-25T12:00:24.179Z,48.22
2019-03-25T12:02:52.281Z,47.84
2019-03-25T12:05:20.274Z,48.37
2019-03-25T12:07:48.292Z,49.36
2019-03-25T12:10:16.306Z,50.09
2019-03-25T12:12:48.110Z,50.26
2019-03-25T12:15:16.119Z,51.11
2019-03-25T12:17:44.110Z,50.04
2019-03-25T12:20:12.103Z,49.16
2019-03-25T12:22:40.101Z,49.41
2019-03-25T12:25:08.194Z,49.86
2019-03-25T12:27:36.279Z,50.61
2019-03-25T12:30:04.524Z,49.46
2019-03-25T12:32:32.524Z,48.99
2019-03-25T12:35:00.586Z,49.94
2019-03-25T12:37:28.836Z,48.99
2019-03-25T12:39:56.817Z,50.17
2019-03-25T12:42:24.891Z,50.05
2019-03-25T12:44:52.863Z,50.42
2019-03-25T12:47:20.867Z,50.95
2019-03-25T12:49:48.861Z,51.85
2019-03-25T12:52:22.397Z,52.03
2019-03-25T12:54:50.382Z,53.04
2019-03-25T12:57:18.383Z,53.44
2019-03-25T13:00:05.043Z,53.64
2019-03-25T13:02:33.041Z,52.06
2019-03-25T13:05:01.110Z,53.89
2019-03-25T13:07:29.089Z,50.33
2019-03-25T13:09:57.067Z,51.39
2019-03-25T13:12:25.167Z,53.81
2019-03-25T13:14:53.384Z,52.85
2019-03-25T13:17:22.793Z,51.31
2019-03-25T13:20:04.714Z,51.13
2019-03-25T13:22:32.698Z,53.29
2019-03-25T13:25:00.694Z,52.38
2019-03-25T13:27:29.503Z,53.81
2019-03-25T13:29:58.234Z,54.14
2019-03-25T13:32:26.213Z,53.01
2019-03-25T13:34:54.355Z,53.24
2019-03-25T13:37:22.339Z,51.97
2019-03-25T13:39:50.450Z,51.71
2019-03-25T13:42:18.450Z,52.47
2019-03-25T13:44:46.443Z,54.63
2019-03-25T13:47:14.490Z,53.01
2019-03-25T13:49:42.474Z,53.77
2019-03-25T13:52:19.617Z,51.52
2019-03-25T13:54:47.914Z,52.39
2019-03-25T13:57:15.919Z,54.68
2019-03-25T13:59:43.888Z,53.71
2019-03-25T14:02:11.878Z,51.74
2019-03-25T14:04:39.908Z,52.85
2019-03-25T14:07:07.967Z,52.70
2019-03-25T14:09:35.964Z,51.59
2019-03-25T14:12:03.981Z,54.01
2019-03-25T14:14:31.999Z,53.34
2019-03-25T14:17:00.263Z,52.56
2019-03-25T14:19:29.331Z,51.06
2019-03-25T14:21:57.607Z,53.63
2019-03-25T14:24:25.606Z,52.58
2019-03-25T14:26:59.218Z,52.55
2019-03-25T14:29:27.202Z,53.24
2019-03-25T14:31:55.203Z,54.03
2019-03-25T14:34:23.183Z,52.49
2019-03-25T14:36:51.178Z,52.43
2019-03-25T14:39:19.442Z,52.51
2019-03-25T14:41:47.422Z,54.62
2019-03-25T14:44:15.406Z,54.61
2019-03-25T14:46:43.399Z,54.91
2019-03-25T14:49:11.384Z,53.16
2019-03-25T14:51:39.357Z,53.76
2019-03-25T14:54:07.339Z,53.46
2019-03-25T14:56:35.334Z,55.35
2019-03-25T14:59:03.441Z,54.04
2019-03-25T15:01:31.618Z,54.41
2019-03-25T15:04:09.099Z,52.81
2019-03-25T15:06:37.106Z,52.53
2019-03-25T15:09:06.884Z,52.22
2019-03-25T15:11:34.864Z,52.68
2019-03-25T15:14:02.903Z,51.28
2019-03-25T15:16:30.894Z,52.38
2019-03-25T15:18:58.882Z,51.74
2019-03-25T15:21:26.898Z,50.80
2019-03-25T15:23:54.887Z,52.72
2019-03-25T15:26:22.880Z,52.63
2019-03-25T15:28:50.895Z,52.39
2019-03-25T15:31:18.866Z,53.31
2019-03-25T15:33:47.186Z,51.50
2019-03-25T15:36:15.203Z,51.04
2019-03-25T15:38:43.199Z,50.94
2019-03-25T15:41:18.590Z,51.15
2019-03-25T15:43:46.595Z,50.42
2019-03-25T15:46:14.572Z,52.13
2019-03-25T15:48:42.576Z,51.55
2019-03-25T15:51:10.671Z,51.73
2019-03-25T15:53:38.800Z,50.46
2019-03-25T15:56:06.779Z,50.57
2019-03-25T15:58:34.882Z,52.88
2019-03-25T16:01:02.910Z,51.21
2019-03-25T16:03:30.923Z,51.69
2019-03-25T16:05:58.990Z,52.95
2019-03-25T16:08:27.250Z,52.59
2019-03-25T16:10:55.300Z,53.10
2019-03-25T16:13:23.419Z,53.34
2019-03-25T16:15:51.607Z,53.24
2019-03-25T16:18:32.642Z,51.21
2019-03-25T16:21:00.659Z,52.08
2019-03-25T16:23:28.634Z,51.03
2019-03-25T16:25:56.674Z,51.70
2019-03-25T16:28:24.695Z,51.13
2019-03-25T16:30:58.648Z,51.27
2019-03-25T16:33:22.424Z,50.44
2019-03-25T16:35:50.414Z,51.18
2019-03-25T16:38:18.446Z,51.42
2019-03-25T16:40:46.438Z,51.23
2019-03-25T16:43:14.495Z,51.64
2019-03-25T16:45:42.499Z,50.26
2019-03-25T16:48:10.527Z,51.54
2019-03-25T16:50:39.864Z,52.01
2019-03-25T16:53:07.910Z,50.53
2019-03-25T16:55:36.345Z,51.72
2019-03-25T16:58:04.364Z,51.47
2019-03-25T17:00:32.435Z,52.59
2019-03-25T17:03:00.430Z,51.24
2019-03-25T17:05:28.427Z,49.45
2019-03-25T17:07:56.407Z,49.91
2019-03-25T17:10:24.402Z,51.81
2019-03-25T17:12:52.387Z,51.23
2019-03-25T17:15:20.379Z,52.72
2019-03-25T17:17:48.363Z,52.34
2019-03-25T17:20:17.173Z,53.10
2019-03-25T17:22:45.173Z,51.33
2019-03-25T17:25:13.563Z,52.46
2019-03-25T17:27:43.731Z,52.84
2019-03-25T17:30:13.007Z,52.36
2019-03-25T17:32:41.035Z,51.99
2019-03-25T17:35:10.691Z,52.08
2019-03-25T17:37:38.779Z,52.29
2019-03-25T17:40:06.891Z,52.41
2019-03-25T17:42:35.019Z,52.04
2019-03-25T17:45:03.003Z,52.21
2019-03-25T17:47:30.991Z,53.19
2019-03-25T17:49:59.016Z,53.03
2019-03-25T17:52:26.991Z,53.15
2019-03-25T17:54:55.037Z,53.86
2019-03-25T17:57:23.125Z,53.57
2019-03-25T17:59:51.109Z,53.41
2019-03-25T18:02:19.115Z,53.66
2019-03-25T18:04:47.111Z,55.11
2019-03-25T18:07:15.119Z,52.81
2019-03-25T18:09:43.113Z,53.47
2019-03-25T18:12:12.491Z,54.32
2019-03-25T18:14:40.482Z,53.76
2019-03-25T18:17:08.462Z,55.04
2019-03-25T18:19:36.476Z,53.32
2019-03-25T18:22:04.451Z,55.55
2019-03-25T18:24:32.446Z,55.51
2019-03-25T18:27:00.439Z,54.95
2019-03-25T18:29:28.415Z,53.53
2019-03-25T18:31:57.686Z,52.34
2019-03-25T18:34:25.977Z,53.11
2019-03-25T18:36:54.349Z,54.33
2019-03-25T18:39:22.795Z,54.39
2019-03-25T18:41:51.163Z,53.80
2019-03-25T18:44:19.214Z,51.73
2019-03-25T18:46:47.194Z,53.25
2019-03-25T18:49:16.754Z,53.35
2019-03-25T18:51:49.446Z,52.44
2019-03-25T18:54:17.497Z,53.47
2019-03-25T18:56:45.496Z,52.40
2019-03-25T18:59:13.497Z,51.16
2019-03-25T19:01:41.541Z,51.46
2019-03-25T19:04:09.690Z,51.73
2019-03-25T19:06:37.870Z,51.05
2019-03-25T19:09:06.821Z,52.82
2019-03-25T19:11:34.874Z,50.95
2019-03-25T19:14:02.997Z,51.36
2019-03-25T19:16:31.133Z,50.79
2019-03-25T19:18:59.143Z,51.06
2019-03-25T19:21:27.159Z,51.67
2019-03-25T19:23:55.159Z,51.51
2019-03-25T19:26:23.126Z,51.34
2019-03-25T19:28:54.024Z,51.12
2019-03-25T19:31:24.330Z,50.80
2019-03-25T19:33:52.387Z,50.45
2019-03-25T19:36:20.485Z,50.72
2019-03-25T19:38:48.541Z,51.01
2019-03-25T19:41:18.769Z,51.24
2019-03-25T19:43:46.382Z,50.21
2019-03-25T19:46:14.483Z,50.66
2019-03-25T19:48:42.548Z,50.42
2019-03-25T19:51:10.619Z,50.75
2019-03-25T19:53:38.650Z,50.08
2019-03-25T19:56:06.653Z,50.62
2019-03-25T19:58:34.778Z,50.27
2019-03-25T20:01:02.902Z,50.61
2019-03-25T20:03:32.993Z,50.08
2019-03-25T20:06:08.369Z,49.89
2019-03-25T20:08:32.241Z,50.13
2019-03-25T20:11:00.277Z,50.24
2019-03-25T20:13:28.342Z,50.42
2019-03-25T20:16:00.747Z,50.77
2019-03-25T20:18:28.727Z,50.79
2019-03-25T20:20:56.818Z,50.67
2019-03-25T20:23:24.905Z,50.62
2019-03-25T20:25:53.010Z,50.41
2019-03-25T20:28:21.047Z,49.99
2019-03-25T20:30:49.141Z,50.55
2019-03-25T20:33:17.171Z,49.80
2019-03-25T20:35:46.229Z,50.16
2019-03-25T20:38:14.286Z,50.15
2019-03-25T20:40:42.689Z,50.53
2019-03-25T20:43:10.691Z,50.58
2019-03-25T20:45:38.834Z,50.10
2019-03-25T20:48:08.147Z,50.04
2019-03-25T20:50:36.209Z,50.55
2019-03-25T20:53:06.517Z,49.98
2019-03-25T20:55:34.619Z,50.48
2019-03-25T20:58:02.611Z,50.39
2019-03-25T21:00:46.574Z,50.42
2019-03-25T21:03:14.615Z,50.88
2019-03-25T21:05:44.684Z,50.52
2019-03-25T21:08:12.745Z,49.90
2019-03-25T21:10:40.811Z,49.66
2019-03-25T21:13:08.814Z,49.80
2019-03-25T21:15:38.561Z,49.97
2019-03-25T21:18:10.905Z,50.32
2019-03-25T21:20:39.135Z,49.71
2019-03-25T21:23:07.188Z,50.99
2019-03-25T21:25:35.238Z,49.72
2019-03-25T21:28:03.401Z,50.70
2019-03-25T21:30:31.452Z,52.21
2019-03-25T21:32:59.430Z,50.70
2019-03-25T21:35:27.595Z,50.39
2019-03-25T21:37:57.321Z,49.51
2019-03-25T21:40:25.406Z,50.42
2019-03-25T21:42:53.447Z,49.94
2019-03-25T21:45:21.641Z,49.78
2019-03-25T21:47:49.628Z,49.39
2019-03-25T21:50:17.720Z,49.67
2019-03-25T21:52:45.784Z,49.42
2019-03-25T21:55:13.787Z,49.16
2019-03-25T21:57:42.843Z,48.85
2019-03-25T22:00:12.209Z,49.06
2019-03-25T22:02:40.251Z,48.89
2019-03-25T22:05:08.245Z,49.54
2019-03-25T22:07:36.242Z,49.09
2019-03-25T22:10:04.388Z,48.79
2019-03-25T22:12:32.586Z,49.82
2019-03-25T22:15:00.682Z,49.18
2019-03-25T22:17:28.844Z,50.32
2019-03-25T22:19:56.846Z,50.87
2019-03-25T22:22:24.950Z,49.45
2019-03-25T22:24:52.958Z,50.44
2019-03-25T22:27:20.998Z,49.87
2019-03-25T22:29:48.970Z,49.98
2019-03-25T22:32:16.986Z,49.93
2019-03-25T22:34:45.063Z,50.15
2019-03-25T22:37:26.895Z,50.29
2019-03-25T22:39:46.227Z,50.26
2019-03-25T22:42:14.215Z,49.72
2019-03-25T22:44:42.386Z,51.05
2019-03-25T22:47:10.409Z,50.84
2019-03-25T22:49:38.418Z,49.83
2019-03-25T22:52:06.402Z,50.72
2019-03-25T22:54:34.409Z,50.78
2019-03-25T22:57:02.383Z,50.08
2019-03-25T22:59:30.614Z,50.42
2019-03-25T23:01:58.666Z,51.25
2019-03-25T23:04:26.708Z,50.46
2019-03-25T23:06:54.688Z,50.40
2019-03-25T23:09:22.682Z,50.12
2019-03-25T23:11:50.706Z,50.75
2019-03-25T23:14:18.707Z,51.78
2019-03-25T23:16:46.733Z,51.04
2019-03-25T23:19:14.843Z,52.19
2019-03-25T23:21:42.895Z,50.82
2019-03-25T23:24:14.388Z,52.05
2019-03-25T23:26:42.371Z,50.71
2019-03-25T23:29:10.374Z,50.45
2019-03-25T23:31:38.367Z,50.60
2019-03-25T23:34:06.354Z,50.50
2019-03-25T23:36:34.349Z,50.55
2019-03-25T23:39:02.350Z,50.17
2019-03-25T23:41:46.668Z,49.84
2019-03-25T23:44:14.887Z,50.76
2019-03-25T23:46:42.859Z,49.51
2019-03-25T23:49:22.311Z,50.15
2019-03-25T23:51:42.027Z,50.29
2019-03-25T23:54:14.357Z,50.26
2019-03-25T23:56:42.486Z,50.25
2019-03-25T23:59:10.446Z,50.19
